Time;durP1;ratioP1;P1;durP2;ratioP2;P2;SDS_P1;SDS_P2;PMS_P1;PMS_P2;Temp;Humidity;BMP_temperature;BMP_pressure;BME280_temperature;BME280_humidity;BME280_pressure;Samples;Min_cycle;Max_cycle;Signal;HPM_P1;HPM_P2
2022/04/15 00:00:26;;;;;;;23.10;10.75;;;;;;;7.58;100.00;102408.06;4954193;28;20053;-73
2022/04/15 00:02:51;;;;;;;20.75;11.50;;;;;;;7.63;100.00;102417.34;4973878;28;20034;-73
2022/04/15 00:05:36;;;;;;;21.88;11.82;;;;;;;7.58;100.00;102408.94;4952463;28;21007;-73
2022/04/15 00:08:02;;;;;;;21.20;9.02;;;;;;;7.59;100.00;102413.28;4969362;28;20099;-73
2022/04/15 00:10:28;;;;;;;13.82;7.65;;;;;;;7.65;100.00;102406.44;4950156;28;20073;-73
2022/04/15 00:12:57;;;;;;;21.85;8.85;;;;;;;7.73;100.00;102416.41;4968639;28;20033;-73
2022/04/15 00:15:23;;;;;;;23.42;9.45;;;;;;;7.70;100.00;102417.56;4973324;28;20051;-73
2022/04/15 00:17:49;;;;;;;20.27;7.85;;;;;;;7.72;100.00;102420.94;4950962;28;20045;-73
2022/04/15 00:20:14;;;;;;;19.50;9.18;;;;;;;7.80;100.00;102423.69;4973304;28;21035;-73
2022/04/15 00:22:40;;;;;;;19.40;8.25;;;;;;;7.86;100.00;102420.38;4956303;28;20677;-73
2022/04/15 00:25:07;;;;;;;22.38;10.85;;;;;;;7.83;100.00;102418.00;4973926;28;20041;-73
2022/04/15 00:27:34;;;;;;;16.20;8.10;;;;;;;7.84;100.00;102418.84;4954842;28;20214;-73
2022/04/15 00:29:59;;;;;;;16.88;6.97;;;;;;;7.76;100.00;102408.06;4973250;28;20037;-73
2022/04/15 00:32:26;;;;;;;17.23;7.13;;;;;;;7.78;100.00;102414.94;4952159;28;20040;-73
2022/04/15 00:34:52;;;;;;;9.93;6.65;;;;;;;7.80;100.00;102415.63;4964040;28;20058;-73
2022/04/15 00:37:18;;;;;;;10.68;6.72;;;;;;;7.91;100.00;102419.91;4971337;28;20088;-73
2022/04/15 00:39:47;;;;;;;8.93;6.25;;;;;;;7.89;100.00;102419.19;4952394;28;20447;-73
2022/04/15 00:42:13;;;;;;;11.25;6.40;;;;;;;7.86;100.00;102416.81;4970554;28;20157;-73
2022/04/15 00:44:38;;;;;;;15.85;7.00;;;;;;;7.87;100.00;102421.22;4953187;28;20143;-73
2022/04/15 00:47:08;;;;;;;25.80;10.85;;;;;;;7.94;100.00;102421.44;4954995;28;20428;-73
2022/04/15 00:49:34;;;;;;;18.70;9.77;;;;;;;7.96;100.00;102422.09;4950208;28;20061;-73
2022/04/15 00:52:01;;;;;;;13.05;8.07;;;;;;;7.93;100.00;102422.41;4951580;28;20076;-73
2022/04/15 00:54:29;;;;;;;19.05;7.85;;;;;;;7.89;100.00;102420.03;4963164;28;20561;-73
2022/04/15 00:56:57;;;;;;;16.77;7.63;;;;;;;7.96;100.00;102422.09;4973454;28;20049;-73
2022/04/15 00:59:23;;;;;;;24.15;8.10;;;;;;;7.88;100.00;102421.03;4971712;28;20029;-73
2022/04/15 01:01:49;;;;;;;20.88;7.80;;;;;;;7.87;100.00;102424.75;4937886;28;20049;-73
2022/04/15 01:04:16;;;;;;;16.20;7.22;;;;;;;7.88;100.00;102420.22;4952148;28;20063;-73
2022/04/15 01:06:41;;;;;;;12.13;7.35;;;;;;;7.86;100.00;102428.44;4958018;28;20058;-73
2022/04/15 01:09:09;;;;;;;12.73;7.65;;;;;;;7.85;100.00;102421.34;4973650;28;20060;-73
2022/04/15 01:11:35;;;;;;;15.95;7.25;;;;;;;7.90;100.00;102428.97;4955888;28;20082;-73
2022/04/15 01:14:00;;;;;;;14.68;6.50;;;;;;;7.86;100.00;102433.78;4969303;28;24924;-73
2022/04/15 01:16:27;;;;;;;15.60;5.82;;;;;;;7.87;100.00;102429.25;4967593;28;20041;-73
2022/04/15 01:18:52;;;;;;;12.85;5.32;;;;;;;7.88;100.00;102429.09;4954638;28;20485;-73
2022/04/15 01:21:19;;;;;;;12.27;5.38;;;;;;;7.95;100.00;102428.47;4970060;28;20030;-73
2022/04/15 01:23:44;;;;;;;16.25;5.05;;;;;;;7.98;100.00;102423.63;4950672;28;20050;-73
2022/04/15 01:26:10;;;;;;;15.18;5.45;;;;;;;7.97;100.00;102432.69;4968844;28;20041;-73
2022/04/15 01:28:35;;;;;;;19.58;5.28;;;;;;;7.93;100.00;102427.78;4953539;28;20050;-73
2022/04/15 01:31:00;;;;;;;12.77;6.43;;;;;;;7.88;100.00;102436.31;4966505;28;20037;-73
2022/04/15 01:33:26;;;;;;;14.10;5.82;;;;;;;7.88;100.00;102436.31;4952848;28;20088;-73
2022/04/15 01:35:51;;;;;;;12.77;5.78;;;;;;;7.88;100.00;102431.78;4969192;28;20037;-73
2022/04/15 01:38:17;;;;;;;19.45;6.03;;;;;;;7.88;100.00;102429.09;4968321;28;20036;-73
2022/04/15 01:40:43;;;;;;;11.70;4.28;;;;;;;7.93;100.00;102427.78;4955917;28;20398;-73
2022/04/15 01:43:10;;;;;;;8.25;4.30;;;;;;;7.91;100.00;102429.78;4965414;28;20053;-73
2022/04/15 01:45:35;;;;;;;8.68;4.32;;;;;;;7.93;100.00;102433.97;4968173;28;20524;-73
2022/04/15 01:48:02;;;;;;;9.35;4.68;;;;;;;7.98;100.00;102428.16;4970133;28;20044;-73
2022/04/15 01:50:28;;;;;;;13.30;4.53;;;;;;;8.01;100.00;102443.97;4956794;28;20084;-73
2022/04/15 01:52:54;;;;;;;13.48;5.82;;;;;;;7.96;100.00;102428.31;4969048;28;20041;-73
2022/04/15 01:55:20;;;;;;;11.77;5.78;;;;;;;7.97;100.00;102437.19;4961785;28;21462;-73
2022/04/15 01:57:45;;;;;;;14.73;5.82;;;;;;;7.94;100.00;102451.78;4956901;28;20060;-73
2022/04/15 02:00:11;;;;;;;21.73;6.25;;;;;;;7.97;100.00;102445.25;4966488;28;20049;-73
2022/04/15 02:02:36;;;;;;;14.10;6.28;;;;;;;7.99;100.00;102444.09;4951997;28;20497;-73
2022/04/15 02:05:02;;;;;;;18.42;6.40;;;;;;;8.02;100.00;102443.78;4966774;28;20052;-73
2022/04/15 02:07:28;;;;;;;16.95;7.00;;;;;;;8.03;100.00;102450.00;4951000;28;20049;-73
2022/04/15 02:09:53;;;;;;;13.85;7.00;;;;;;;8.02;100.00;102451.00;4966746;28;20041;-73
2022/04/15 02:12:18;;;;;;;15.80;7.20;;;;;;;7.98;100.00;102455.00;4952749;28;20153;-73
2022/04/15 02:14:46;;;;;;;17.27;6.50;;;;;;;8.01;100.00;102460.91;4968642;28;21033;-73
2022/04/15 02:17:11;;;;;;;24.35;7.38;;;;;;;7.97;100.00;102450.63;4968855;28;20108;-73
2022/04/15 02:19:36;;;;;;;14.55;6.75;;;;;;;7.95;100.00;102458.00;4954626;28;22421;-73
2022/04/15 02:22:02;;;;;;;20.90;6.95;;;;;;;7.98;100.00;102458.53;4966822;28;22376;-74
2022/04/15 02:24:27;;;;;;;21.27;7.07;;;;;;;7.96;100.00;102457.81;4952766;28;20053;-73
2022/04/15 02:26:53;;;;;;;21.42;7.50;;;;;;;7.92;100.00;102459.13;4966388;28;21295;-73
2022/04/15 02:29:18;;;;;;;17.15;7.35;;;;;;;7.92;100.00;102458.31;4951673;28;20050;-73
2022/04/15 02:31:44;;;;;;;15.55;7.00;;;;;;;7.89;100.00;102460.28;4965619;28;20034;-73
2022/04/15 02:34:09;;;;;;;18.15;7.88;;;;;;;7.86;100.00;102454.38;4949025;28;22295;-73
2022/04/15 02:36:35;;;;;;;17.90;7.40;;;;;;;7.91;100.00;102464.69;4955554;28;20072;-74
2022/04/15 02:39:00;;;;;;;20.02;7.78;;;;;;;7.94;100.00;102456.31;4965945;28;20068;-74
2022/04/15 02:41:25;;;;;;;20.17;7.65;;;;;;;8.00;100.00;102455.66;4953676;28;20134;-73
2022/04/15 02:43:51;;;;;;;17.73;7.57;;;;;;;7.95;100.00;102458.00;4971548;28;20042;-73
2022/04/15 02:46:18;;;;;;;18.15;8.68;;;;;;;7.92;100.00;102459.13;4951272;28;20053;-74
2022/04/15 02:48:44;;;;;;;23.30;9.20;;;;;;;7.94;100.00;102464.38;4969338;28;20037;-73
2022/04/15 02:51:09;;;;;;;23.33;9.48;;;;;;;7.98;100.00;102463.06;4953030;28;21379;-73
2022/04/15 02:53:35;;;;;;;21.92;10.43;;;;;;;7.98;100.00;102468.41;4973339;28;20041;-73
2022/04/15 02:56:00;;;;;;;32.88;13.88;;;;;;;7.96;100.00;102473.09;4964693;28;20030;-73
2022/04/15 02:58:26;;;;;;;22.90;12.90;;;;;;;7.98;100.00;102468.41;4955002;28;20049;-73
2022/04/15 03:00:51;;;;;;;28.38;14.23;;;;;;;7.92;100.00;102474.41;4965499;28;20124;-73
2022/04/15 03:03:17;;;;;;;22.17;13.98;;;;;;;7.95;100.00;102474.09;4950973;28;20529;-73
2022/04/15 03:05:42;;;;;;;22.00;15.25;;;;;;;7.91;100.00;102475.41;4965507;28;20068;-74
2022/04/15 03:08:08;;;;;;;23.17;15.82;;;;;;;7.85;100.00;102477.69;4952794;28;20080;-74
2022/04/15 03:10:34;;;;;;;23.60;16.50;;;;;;;7.83;100.00;102485.06;4956888;28;20064;-74
2022/04/15 03:13:00;;;;;;;23.52;15.18;;;;;;;7.78;100.00;102484.69;4964919;28;20075;-74
2022/04/15 03:15:26;;;;;;;24.00;14.93;;;;;;;7.72;100.00;102485.31;4970684;28;20030;-74
2022/04/15 03:17:52;;;;;;;21.98;15.77;;;;;;;7.69;100.00;102487.44;4965939;28;20048;-74
2022/04/15 03:20:17;;;;;;;25.98;15.68;;;;;;;7.71;100.00;102497.03;4954729;28;20065;-74
2022/04/15 03:22:44;;;;;;;26.27;15.95;;;;;;;7.75;100.00;102484.97;4967727;28;20145;-74
2022/04/15 03:25:17;;;;;;;22.25;14.32;;;;;;;7.71;100.00;102488.13;4945869;28;20053;-74
2022/04/15 03:27:46;;;;;;;19.30;12.98;;;;;;;7.72;100.00;102496.06;4963335;28;20126;-74
2022/04/15 03:30:12;;;;;;;15.93;10.85;;;;;;;7.61;100.00;102504.28;4935382;28;20062;-74
2022/04/15 03:32:45;;;;;;;14.25;9.45;;;;;;;7.50;100.00;102504.53;4953961;28;20041;-74
2022/04/15 03:35:11;;;;;;;;;;;;;;;7.48;100.00;102514.56;4956136;28;20048;-74
2022/04/15 03:37:36;;;;;;;13.60;9.20;;;;;;;7.46;100.00;102517.41;4966296;28;20000;-74
2022/04/15 03:40:02;;;;;;;14.85;9.93;;;;;;;7.35;100.00;102517.63;4965727;28;20045;-74
2022/04/15 03:42:27;;;;;;;14.57;9.35;;;;;;;7.28;100.00;102522.72;4949009;28;20564;-74
2022/04/15 03:44:52;;;;;;;11.05;8.82;;;;;;;7.18;100.00;102517.41;4969734;28;20045;-74
2022/04/15 03:47:18;;;;;;;13.98;9.02;;;;;;;7.22;100.00;102525.16;4948501;28;20096;-74
2022/04/15 03:49:45;;;;;;;13.95;9.32;;;;;;;7.18;100.00;102524.63;4964666;28;20064;-74
2022/04/15 03:52:11;;;;;;;12.27;9.23;;;;;;;7.14;100.00;102533.94;4949182;28;20052;-74
2022/04/15 03:54:36;;;;;;;13.40;8.82;;;;;;;7.09;100.00;102531.72;4965401;28;20986;-74
2022/04/15 03:57:02;;;;;;;13.27;9.15;;;;;;;7.02;100.00;102536.00;4950180;28;20060;-74
2022/04/15 03:59:27;;;;;;;16.38;9.50;;;;;;;6.94;100.00;102534.03;4961172;28;20049;-74
2022/04/15 04:01:53;;;;;;;11.10;8.77;;;;;;;6.94;100.00;102536.72;4967261;28;20045;-74
2022/04/15 04:04:18;;;;;;;11.35;8.82;;;;;;;6.89;100.00;102535.47;4957262;28;20058;-74
2022/04/15 04:06:44;;;;;;;11.43;9.75;;;;;;;6.88;100.00;102540.00;4971525;28;20053;-74
2022/04/15 04:09:09;;;;;;;12.15;8.93;;;;;;;6.87;100.00;102543.66;4955874;28;20136;-74
2022/04/15 04:11:34;;;;;;;12.90;10.30;;;;;;;6.87;100.00;102548.16;4969381;28;20735;-74
2022/04/15 04:14:00;;;;;;;13.90;10.30;;;;;;;6.85;100.00;102547.50;4960452;28;20137;-74
2022/04/15 04:16:26;;;;;;;14.95;9.88;;;;;;;6.87;100.00;102554.38;4941649;28;20105;-74
2022/04/15 04:18:51;;;;;;;13.95;10.05;;;;;;;6.84;100.00;102551.13;4968845;28;22313;-74
2022/04/15 04:21:19;;;;;;;13.38;9.55;;;;;;;6.88;100.00;102561.44;4957703;28;20050;-74
2022/04/15 04:23:45;;;;;;;13.27;8.77;;;;;;;6.87;100.00;102550.84;4970647;28;20040;-74
2022/04/15 04:26:10;;;;;;;12.07;8.57;;;;;;;6.92;100.00;102560.16;4952114;28;20053;-74
2022/04/15 04:28:35;;;;;;;11.80;8.25;;;;;;;6.94;100.00;102566.19;4974726;28;20124;-74
2022/04/15 04:31:01;;;;;;;11.95;8.63;;;;;;;6.95;100.00;102567.06;4957532;28;20049;-74
2022/04/15 04:33:26;;;;;;;10.00;7.45;;;;;;;6.97;100.00;102572.25;4968941;28;20038;-74
2022/04/15 04:35:52;;;;;;;11.95;6.78;;;;;;;6.88;100.00;102572.16;4956736;28;20138;-74
2022/04/15 04:38:17;;;;;;;10.05;6.22;;;;;;;6.91;100.00;102569.19;4969161;28;20095;-74
2022/04/15 04:40:43;;;;;;;11.02;5.28;;;;;;;6.97;100.00;102572.25;4983057;28;20128;-74
2022/04/15 04:43:09;;;;;;;8.73;6.57;;;;;;;6.92;100.00;102573.53;4956450;28;20061;-74
2022/04/15 04:45:36;;;;;;;9.80;6.22;;;;;;;6.90;100.00;102580.88;4971589;28;20045;-74
2022/04/15 04:48:02;;;;;;;8.75;7.20;;;;;;;6.88;100.00;102588.22;4955580;28;20064;-74
2022/04/15 04:50:28;;;;;;;9.15;6.30;;;;;;;6.89;100.00;102589.91;4966765;28;20068;-74
2022/04/15 04:52:54;;;;;;;13.68;7.63;;;;;;;6.87;100.00;102583.00;4951132;28;22693;-74
2022/04/15 04:55:20;;;;;;;9.68;6.55;;;;;;;6.82;100.00;102594.16;4982434;28;20037;-74
2022/04/15 04:57:46;;;;;;;9.80;7.90;;;;;;;6.82;100.00;102596.84;4968210;28;20048;-74
2022/04/15 05:00:13;;;;;;;10.75;7.90;;;;;;;6.86;100.00;102605.41;4950945;28;20155;-74
2022/04/15 05:02:39;;;;;;;11.15;7.03;;;;;;;6.88;100.00;102603.41;4974483;28;20120;-74
2022/04/15 05:05:06;;;;;;;9.75;7.55;;;;;;;6.91;100.00;102614.72;4942674;28;24609;-74
2022/04/15 05:07:31;;;;;;;13.23;7.20;;;;;;;6.94;100.00;102609.03;4966366;28;20037;-74
2022/04/15 05:09:57;;;;;;;10.02;7.90;;;;;;;6.93;100.00;102612.72;4958505;28;20092;-74
2022/04/15 05:12:22;;;;;;;13.40;8.82;;;;;;;7.00;100.00;102620.19;4971352;28;20671;-74
2022/04/15 05:14:48;;;;;;;10.07;7.53;;;;;;;6.94;100.00;102609.03;4951881;28;20050;-74
2022/04/15 05:17:14;;;;;;;10.50;7.38;;;;;;;7.00;100.00;102628.22;4968538;28;20112;-74
2022/04/15 05:19:39;;;;;;;11.82;8.20;;;;;;;6.97;100.00;102634.72;4971111;28;20038;-74
2022/04/15 05:22:05;;;;;;;12.95;7.47;;;;;;;6.94;100.00;102629.63;4958064;28;20398;-74
2022/04/15 05:24:30;;;;;;;12.32;7.93;;;;;;;6.91;100.00;102635.28;4977992;28;20033;-74
2022/04/15 05:26:56;;;;;;;15.88;7.25;;;;;;;6.95;100.00;102639.38;4964528;28;20041;-74
2022/04/15 05:29:21;;;;;;;11.57;7.78;;;;;;;6.86;100.00;102641.09;4971710;28;20138;-74
2022/04/15 05:31:47;;;;;;;12.23;7.25;;;;;;;6.93;100.00;102644.88;4958438;28;20088;-74
2022/04/15 05:34:12;;;;;;;10.85;7.28;;;;;;;6.90;100.00;102647.84;4968123;28;20231;-74
2022/04/15 05:36:37;;;;;;;15.10;7.88;;;;;;;6.91;100.00;102640.66;4969892;28;20037;-74
2022/04/15 05:39:03;;;;;;;9.77;7.22;;;;;;;6.89;100.00;102648.00;4968082;28;20048;-74
2022/04/15 05:41:29;;;;;;;14.18;8.02;;;;;;;6.92;100.00;102648.56;4974953;28;20473;-74
2022/04/15 05:43:55;;;;;;;11.80;7.55;;;;;;;6.89;100.00;102648.84;4958439;28;20136;-74
2022/04/15 05:46:21;;;;;;;11.20;7.45;;;;;;;6.90;100.00;102653.19;4970904;28;20044;-73
2022/04/15 05:48:46;;;;;;;11.88;8.15;;;;;;;6.85;100.00;102662.69;4955163;28;20085;-73
2022/04/15 05:51:12;;;;;;;16.50;9.52;;;;;;;6.85;100.00;102660.84;4971609;28;21352;-74
2022/04/15 05:53:37;;;;;;;17.08;10.25;;;;;;;6.88;100.00;102663.22;4952023;28;20137;-74
2022/04/15 05:56:03;;;;;;;18.35;10.35;;;;;;;6.95;100.00;102668.88;4977594;28;20029;-75
2022/04/15 05:58:29;;;;;;;17.10;10.48;;;;;;;7.03;100.00;102670.81;4967796;28;20084;-74
2022/04/15 06:00:55;;;;;;;18.27;11.18;;;;;;;7.06;100.00;102670.53;4964621;28;20600;-74
2022/04/15 06:03:20;;;;;;;17.77;10.90;;;;;;;7.12;100.00;102675.28;4976442;28;20036;-74
2022/04/15 06:05:47;;;;;;;15.35;11.68;;;;;;;7.06;100.00;102671.38;4946658;28;20083;-74
2022/04/15 06:08:13;;;;;;;18.73;12.57;;;;;;;7.18;100.00;102678.22;4968292;28;20126;-74
2022/04/15 06:10:39;;;;;;;18.33;12.00;;;;;;;7.22;100.00;102686.81;4958961;28;20436;-74
2022/04/15 06:13:06;;;;;;;18.05;12.38;;;;;;;7.21;100.00;102690.50;4966496;28;20572;-74
2022/04/15 06:15:32;;;;;;;20.48;12.10;;;;;;;7.25;100.00;102691.91;4954638;28;20147;-74
2022/04/15 06:17:59;;;;;;;19.00;13.18;;;;;;;7.32;100.00;102693.00;4954063;28;20236;-73
2022/04/15 06:20:25;;;;;;;21.33;12.35;;;;;;;7.35;100.00;102697.25;4965916;28;20033;-74
2022/04/15 06:22:50;;;;;;;15.73;11.98;;;;;;;7.33;100.00;102697.38;4950935;28;23338;-74
2022/04/15 06:25:16;;;;;;;19.10;12.88;;;;;;;7.36;100.00;102697.06;4973794;28;23173;-74
2022/04/15 06:27:41;;;;;;;19.83;13.93;;;;;;;7.44;100.00;102700.84;4951432;28;20049;-74
2022/04/15 06:30:08;;;;;;;24.38;15.57;;;;;;;7.56;100.00;102705.91;4972188;28;20042;-74
2022/04/15 06:32:37;;;;;;;24.95;14.35;;;;;;;7.60;100.00;102706.44;4956558;28;20060;-74
2022/04/15 06:35:03;;;;;;;31.30;17.75;;;;;;;7.55;100.00;102711.44;4970903;28;20037;-74
2022/04/15 06:37:29;;;;;;;28.27;16.85;;;;;;;7.57;100.00;102707.59;4953410;28;20052;-74
2022/04/15 06:39:54;;;;;;;30.77;18.10;;;;;;;7.61;100.00;102706.28;4966747;28;20628;-74
2022/04/15 06:42:24;;;;;;;33.90;16.77;;;;;;;7.65;100.00;102714.88;4966081;28;20424;-74
2022/04/15 06:44:49;;;;;;;31.58;18.02;;;;;;;7.73;100.00;102711.50;4954420;28;23364;-74
2022/04/15 06:47:15;;;;;;;28.10;16.45;;;;;;;7.79;100.00;102717.09;4957881;28;20062;-74
2022/04/15 06:49:41;;;;;;;26.17;17.17;;;;;;;7.85;100.00;102715.66;4926095;28;20180;-74
2022/04/15 06:52:07;;;;;;;36.83;17.20;;;;;;;7.95;100.00;102723.66;4967606;28;20050;-74
2022/04/15 06:54:32;;;;;;;32.05;17.88;;;;;;;7.99;100.00;102722.34;4952520;28;20057;-74
2022/04/15 06:56:58;;;;;;;22.42;15.68;;;;;;;7.98;100.00;102726.03;4967861;28;20695;-73
2022/04/15 06:59:23;;;;;;;28.17;15.68;;;;;;;8.12;100.00;102733.59;4968220;28;20044;-74
2022/04/15 07:01:49;;;;;;;32.38;15.27;;;;;;;8.06;100.00;102728.81;4955645;28;21048;-74
2022/04/15 07:04:14;;;;;;;28.08;15.65;;;;;;;8.03;100.00;102735.31;4969991;28;21320;-73
2022/04/15 07:06:40;;;;;;;31.55;15.43;;;;;;;8.08;100.00;102737.56;4953376;28;20053;-74
2022/04/15 07:09:05;;;;;;;24.00;14.02;;;;;;;8.16;100.00;102739.50;4966288;28;21093;-75
2022/04/15 07:11:31;;;;;;;21.80;14.30;;;;;;;8.26;100.00;102733.06;4938640;28;20058;-73
2022/04/15 07:13:56;;;;;;;24.00;14.88;;;;;;;8.37;100.00;102745.44;4964439;28;20560;-74
2022/04/15 07:16:22;;;;;;;23.77;12.80;;;;;;;8.46;100.00;102736.50;4941683;28;20034;-72
2022/04/15 07:18:47;;;;;;;22.13;11.73;;;;;;;8.63;100.00;102745.53;4981716;28;20588;-72
2022/04/15 07:21:13;;;;;;;22.48;10.77;;;;;;;8.67;100.00;102748.78;4986851;28;20029;-73
2022/04/15 07:23:38;;;;;;;18.42;10.88;;;;;;;8.80;100.00;102754.59;4983485;28;20449;-73
2022/04/15 07:26:04;;;;;;;23.75;10.60;;;;;;;8.96;100.00;102743.16;4991049;28;20045;-73
2022/04/15 07:28:35;;;;;;;19.33;10.93;;;;;;;8.84;100.00;102756.84;4976636;28;20080;-74
2022/04/15 07:31:01;;;;;;;19.83;10.90;;;;;;;8.97;100.00;102752.91;4979731;28;20029;-73
2022/04/15 07:33:27;;;;;;;21.40;10.75;;;;;;;8.98;100.00;102746.53;5002516;28;20362;-73
2022/04/15 07:35:53;;;;;;;21.27;11.20;;;;;;;8.90;100.00;102757.22;4995610;28;20565;-74
2022/04/15 07:38:18;;;;;;;18.35;10.63;;;;;;;8.89;100.00;102758.22;5009199;28;20084;-73
2022/04/15 07:40:44;;;;;;;17.42;10.27;;;;;;;8.91;100.00;102766.97;4957211;28;20279;-73
2022/04/15 07:43:09;;;;;;;21.83;10.00;;;;;;;8.75;100.00;102765.00;4955518;28;20623;-73
2022/04/15 07:45:35;;;;;;;16.52;10.63;;;;;;;8.63;100.00;102767.03;4977934;28;20053;-73
2022/04/15 07:48:01;;;;;;;21.25;9.15;;;;;;;8.69;100.00;102769.13;4978424;28;20897;-73
2022/04/15 07:50:26;;;;;;;19.77;9.15;;;;;;;8.94;100.00;102774.72;4962359;28;20053;-73
2022/04/15 07:52:56;;;;;;;17.67;7.88;;;;;;;9.16;100.00;102779.63;4978178;28;20467;-70
2022/04/15 07:55:22;;;;;;;14.73;7.20;;;;;;;9.17;100.00;102781.31;4963565;28;20048;-74
2022/04/15 07:57:48;;;;;;;15.43;7.68;;;;;;;9.25;100.00;102786.72;4972145;28;20050;-73
2022/04/15 08:00:14;;;;;;;18.05;8.35;;;;;;;9.12;100.00;102780.91;4970580;28;20042;-73
2022/04/15 08:02:40;;;;;;;12.00;7.32;;;;;;;9.05;100.00;102793.28;4952305;28;24466;-73
2022/04/15 08:05:06;;;;;;;20.83;7.97;;;;;;;9.03;100.00;102789.94;4974322;28;20120;-73
2022/04/15 08:07:31;;;;;;;18.80;8.35;;;;;;;9.19;100.00;102786.50;4960424;28;20046;-73
2022/04/15 08:09:57;;;;;;;13.63;7.88;;;;;;;9.32;100.00;102793.19;4969448;28;20063;-73
2022/04/15 08:12:22;;;;;;;11.00;6.63;;;;;;;9.38;100.00;102788.19;4953570;28;20657;-73
2022/04/15 08:14:48;;;;;;;14.20;7.78;;;;;;;9.34;100.00;102784.97;4970394;28;20052;-73
2022/04/15 08:17:13;;;;;;;11.90;7.20;;;;;;;9.53;100.00;102787.44;4975250;28;20031;-74
2022/04/15 08:19:39;;;;;;;14.63;7.68;;;;;;;9.80;100.00;102797.19;4951004;28;20064;-73
2022/04/15 08:22:09;;;;;;;13.52;8.18;;;;;;;9.90;100.00;102782.75;4968916;28;20033;-73
2022/04/15 08:24:38;;;;;;;19.27;9.13;;;;;;;9.97;100.00;102786.50;4956271;28;20137;-73
2022/04/15 08:27:04;;;;;;;15.02;8.07;;;;;;;10.52;100.00;102784.19;4969860;28;20128;-73
2022/04/15 08:29:29;;;;;;;16.48;7.22;;;;;;;10.93;100.00;102788.81;4959360;28;20053;-73
2022/04/15 08:31:55;;;;;;;13.55;7.05;;;;;;;11.25;100.00;102787.13;4970967;28;20037;-73
2022/04/15 08:34:20;;;;;;;19.58;7.60;;;;;;;11.73;100.00;102793.44;4955669;28;21310;-73
2022/04/15 08:36:48;;;;;;;15.25;7.50;;;;;;;12.16;100.00;102787.56;4969450;28;20128;-73
2022/04/15 08:39:13;;;;;;;19.95;7.78;;;;;;;12.06;100.00;102792.34;4970237;28;20945;-73
2022/04/15 08:41:42;;;;;;;13.13;7.38;;;;;;;12.91;100.00;102788.78;4958500;28;20046;-73
2022/04/15 08:44:08;;;;;;;13.32;6.45;;;;;;;12.76;100.00;102793.31;4972529;28;20042;-74
2022/04/15 08:46:33;;;;;;;14.60;7.35;;;;;;;13.01;100.00;102786.69;4955325;28;20054;-74
2022/04/15 08:49:00;;;;;;;14.95;6.75;;;;;;;13.27;95.03;102796.34;4959905;28;20437;-73
2022/04/15 08:51:26;;;;;;;12.38;6.07;;;;;;;13.20;98.74;102800.72;4953771;28;20056;-73
2022/04/15 08:53:54;;;;;;;15.30;7.43;;;;;;;12.56;100.00;102793.75;4972923;28;20041;-73
2022/04/15 08:56:22;;;;;;;14.18;6.82;;;;;;;12.19;100.00;102799.91;4966636;28;20034;-73
2022/04/15 08:58:48;;;;;;;14.57;8.15;;;;;;;11.84;100.00;102802.03;4957832;28;20049;-75
2022/04/15 09:01:14;;;;;;;12.18;7.20;;;;;;;11.65;100.00;102802.38;4969466;28;20045;-75
2022/04/15 09:03:40;;;;;;;16.73;7.70;;;;;;;11.71;100.00;102802.53;4955703;28;20140;-74
2022/04/15 09:06:15;;;;;;;12.00;6.30;;;;;;;11.91;100.00;102807.59;4957210;28;20786;-74
2022/04/15 09:09:08;;;;;;;13.98;7.38;;;;;;;12.64;100.00;102804.53;4954687;28;20054;-74
2022/04/15 09:11:37;;;;;;;14.48;6.80;;;;;;;13.94;83.58;102804.41;4973657;28;20112;-75
2022/04/15 09:14:10;;;;;;;15.40;6.60;;;;;;;13.58;81.01;102813.28;4939929;28;20084;-74
2022/04/15 09:16:43;;;;;;;14.80;6.78;;;;;;;13.36;77.87;102814.16;4969823;28;20111;-74
2022/04/15 09:19:10;;;;;;;10.63;6.07;;;;;;;13.04;83.53;102817.97;4954009;28;20564;-73
2022/04/15 09:21:37;;;;;;;12.38;5.85;;;;;;;12.79;88.52;102809.19;4970238;28;20040;-74
2022/04/15 09:24:03;;;;;;;15.07;7.55;;;;;;;12.47;97.39;102824.59;4964564;28;20552;-76
2022/04/15 09:26:28;;;;;;;13.48;7.05;;;;;;;12.69;97.08;102820.22;4964529;28;20041;-76
2022/04/15 09:28:54;;;;;;;12.45;6.63;;;;;;;12.92;90.91;102825.66;4972848;28;20025;-76
2022/04/15 09:31:21;;;;;;;15.38;6.82;;;;;;;13.16;88.43;102821.91;4959195;28;20058;-76
2022/04/15 09:33:57;;;;;;;11.57;6.65;;;;;;;13.03;88.81;102836.06;4974753;28;20111;-75
2022/04/15 09:36:33;;;;;;;15.60;6.97;;;;;;;12.93;84.37;102823.78;4958366;28;20057;-76
2022/04/15 09:39:10;;;;;;;10.20;7.07;;;;;;;12.72;87.58;102833.38;4971172;28;20167;-75
2022/04/15 09:41:38;;;;;;;12.23;7.20;;;;;;;12.61;90.30;102836.50;4951042;28;20088;-75
2022/04/15 09:44:04;;;;;;;13.73;7.68;;;;;;;12.46;90.91;102836.41;4973467;28;20037;-75
2022/04/15 09:46:31;;;;;;;12.82;7.03;;;;;;;12.42;92.94;102829.66;4961614;28;20046;-75
2022/04/15 09:49:05;;;;;;;11.10;6.28;;;;;;;12.31;92.35;102830.06;4981573;28;20045;-74
2022/04/15 09:51:43;;;;;;;14.00;7.45;;;;;;;12.01;96.36;102829.84;4972924;28;20033;-75
2022/04/15 09:54:23;;;;;;;15.43;7.85;;;;;;;11.60;100.00;102829.91;4976744;28;21132;-75
2022/04/15 09:56:49;;;;;;;19.98;8.13;;;;;;;11.31;100.00;102838.53;4960766;28;20164;-74
2022/04/15 09:59:15;;;;;;;18.40;7.68;;;;;;;11.43;100.00;102836.34;4956531;28;20136;-74
2022/04/15 10:01:44;;;;;;;16.52;7.72;;;;;;;11.25;100.00;102835.66;4978309;28;21069;-74
2022/04/15 10:04:10;;;;;;;11.95;8.35;;;;;;;10.97;100.00;102834.13;4960272;28;20049;-75
2022/04/15 10:06:38;;;;;;;15.77;8.35;;;;;;;10.87;100.00;102838.84;4957372;28;20022;-74
2022/04/15 10:09:04;;;;;;;13.13;7.97;;;;;;;11.04;100.00;102839.69;4957507;28;20049;-74
2022/04/15 10:11:32;;;;;;;16.50;7.72;;;;;;;11.15;100.00;102842.06;4972017;28;20377;-75
2022/04/15 10:13:58;;;;;;;16.13;8.75;;;;;;;10.96;100.00;102837.84;4950839;28;20029;-74
2022/04/15 10:16:24;;;;;;;13.60;8.45;;;;;;;10.84;100.00;102843.72;4970152;28;20025;-74
2022/04/15 10:18:50;;;;;;;15.57;8.55;;;;;;;10.87;100.00;102848.78;4972015;28;20037;-75
2022/04/15 10:21:16;;;;;;;14.63;8.63;;;;;;;10.81;100.00;102850.31;4953741;28;20170;-74
2022/04/15 10:23:42;;;;;;;13.48;9.02;;;;;;;11.11;100.00;102846.13;4967918;28;20048;-74
2022/04/15 10:26:09;;;;;;;15.98;8.02;;;;;;;10.99;100.00;102842.06;4948495;28;20054;-74
2022/04/15 10:28:40;;;;;;;15.18;9.02;;;;;;;10.98;100.00;102840.38;4966129;28;22532;-75
2022/04/15 10:31:11;;;;;;;13.65;8.10;;;;;;;11.09;100.00;102831.09;4951550;28;20045;-75
2022/04/15 10:33:39;;;;;;;18.20;8.73;;;;;;;11.25;100.00;102839.22;4968017;28;20039;-75
2022/04/15 10:36:24;;;;;;;14.05;7.82;;;;;;;10.89;100.00;102836.00;4958229;28;20036;-74
2022/04/15 10:39:02;;;;;;;14.23;7.65;;;;;;;10.83;100.00;102836.66;4971153;28;23560;-75
2022/04/15 10:41:29;;;;;;;13.15;8.00;;;;;;;10.84;100.00;102846.41;4963550;28;20069;-75
2022/04/15 10:43:57;;;;;;;13.55;7.63;;;;;;;10.86;100.00;102833.63;4961445;28;21582;-76
2022/04/15 10:46:29;;;;;;;14.05;7.22;;;;;;;11.07;100.00;102855.56;4954234;28;20103;-74
2022/04/15 10:48:57;;;;;;;10.77;7.07;;;;;;;11.26;100.00;102856.22;4949689;28;20139;-74
2022/04/15 10:51:26;;;;;;;11.20;7.35;;;;;;;11.25;100.00;102851.84;4973344;28;20608;-74
2022/04/15 10:53:55;;;;;;;12.52;7.07;;;;;;;11.20;100.00;102855.91;4948233;28;20084;-73
2022/04/15 10:56:23;;;;;;;12.80;6.60;;;;;;;11.00;100.00;102859.94;4968492;28;20033;-72
2022/04/15 11:01:57;;;;;;;11.43;7.20;;;;;;;10.86;100.00;102863.28;4967849;28;20044;-73
2022/04/15 11:04:24;;;;;;;13.52;7.57;;;;;;;10.52;100.00;102858.78;4955504;28;23642;-74
2022/04/15 11:06:50;;;;;;;14.65;7.35;;;;;;;10.55;100.00;102866.56;4969025;28;20033;-74
2022/04/15 11:09:15;;;;;;;12.45;7.35;;;;;;;10.70;100.00;102873.00;4958907;28;20041;-74
2022/04/15 11:11:42;;;;;;;13.95;7.93;;;;;;;10.27;100.00;102877.56;4953215;28;20054;-74
2022/04/15 11:14:13;;;;;;;10.13;7.93;;;;;;;10.41;100.00;102870.72;4963526;28;20037;-74